createdAt,value
2022-08-29T00:00:05.252Z,48.20
2022-08-29T00:00:57.018Z,48.10
2022-08-29T00:01:48.851Z,48.20
2022-08-29T00:02:40.686Z,48.20
2022-08-29T00:03:32.381Z,48.20
2022-08-29T00:04:24.222Z,48.30
2022-08-29T00:05:15.949Z,48.40
2022-08-29T00:06:07.709Z,48.40
2022-08-29T00:06:59.505Z,48.30
2022-08-29T00:07:51.298Z,48.40
2022-08-29T00:08:42.995Z,48.40
2022-08-29T00:09:34.839Z,48.40
2022-08-29T00:10:26.638Z,48.50
2022-08-29T00:11:18.386Z,48.60
2022-08-29T00:12:10.194Z,48.60
2022-08-29T00:13:01.952Z,48.50
2022-08-29T00:13:53.809Z,48.50
2022-08-29T00:14:45.513Z,48.60
2022-08-29T00:15:44.731Z,48.60
2022-08-29T00:16:29.152Z,48.60
2022-08-29T00:17:20.865Z,48.70
2022-08-29T00:18:12.806Z,48.70
2022-08-29T00:19:04.421Z,48.80
2022-08-29T00:19:56.202Z,48.80
2022-08-29T00:20:47.989Z,48.80
2022-08-29T00:21:39.759Z,48.80
2022-08-29T00:22:31.533Z,48.80
2022-08-29T00:23:23.233Z,48.80
2022-08-29T00:24:15.090Z,48.80
2022-08-29T00:25:06.853Z,48.80
2022-08-29T00:25:58.650Z,48.80
2022-08-29T00:26:50.409Z,48.90
2022-08-29T00:27:42.484Z,48.80
2022-08-29T00:28:33.959Z,48.90
2022-08-29T00:29:25.751Z,48.90
2022-08-29T00:30:17.527Z,48.90
2022-08-29T00:31:09.310Z,48.80
2022-08-29T00:32:01.160Z,48.80
2022-08-29T00:32:52.856Z,48.90
2022-08-29T00:33:44.619Z,48.90
2022-08-29T00:34:36.405Z,48.90
2022-08-29T00:35:28.170Z,48.80
2022-08-29T00:36:19.964Z,48.80
2022-08-29T00:37:11.699Z,48.80
2022-08-29T00:38:03.457Z,48.90
2022-08-29T00:38:55.262Z,48.80
2022-08-29T00:39:47.064Z,48.90
2022-08-29T00:40:38.974Z,48.90
2022-08-29T00:41:30.590Z,48.90
2022-08-29T00:42:22.347Z,48.90
2022-08-29T00:43:14.139Z,48.90
2022-08-29T00:44:05.914Z,48.90
2022-08-29T00:44:57.662Z,49.00
2022-08-29T00:45:49.494Z,48.90
2022-08-29T00:46:41.215Z,49.00
2022-08-29T00:47:32.976Z,49.00
2022-08-29T00:48:24.760Z,49.00
2022-08-29T00:49:16.479Z,49.00
2022-08-29T00:50:08.308Z,49.00
2022-08-29T00:51:00.081Z,49.00
2022-08-29T00:51:51.835Z,49.00
2022-08-29T00:52:43.602Z,49.00
2022-08-29T00:53:35.386Z,49.00
2022-08-29T00:54:27.140Z,49.10
2022-08-29T00:55:18.931Z,49.10
2022-08-29T00:56:10.689Z,49.10
2022-08-29T00:57:02.481Z,49.20
2022-08-29T00:57:54.224Z,49.20
2022-08-29T00:58:46.012Z,49.20
2022-08-29T00:59:37.770Z,49.20
2022-08-29T01:00:29.555Z,49.20
2022-08-29T01:01:21.350Z,49.30
2022-08-29T01:02:13.117Z,49.30
2022-08-29T01:03:04.830Z,49.30
2022-08-29T01:03:56.628Z,49.30
2022-08-29T01:04:48.388Z,49.30
2022-08-29T01:05:40.153Z,49.30
2022-08-29T01:06:31.967Z,49.30
2022-08-29T01:07:23.630Z,49.30
2022-08-29T01:08:15.677Z,49.30
2022-08-29T01:09:07.224Z,49.30
2022-08-29T01:09:59.005Z,49.30
2022-08-29T01:10:50.768Z,49.30
2022-08-29T01:11:42.517Z,49.40
2022-08-29T01:12:34.300Z,49.50
2022-08-29T01:13:26.060Z,49.50
2022-08-29T01:14:17.843Z,49.50
2022-08-29T01:15:09.581Z,49.60
2022-08-29T01:16:01.423Z,49.50
2022-08-29T01:16:53.162Z,49.60
2022-08-29T01:17:44.900Z,49.60
2022-08-29T01:18:36.664Z,49.60
2022-08-29T01:19:28.425Z,49.60
2022-08-29T01:20:20.173Z,49.60
2022-08-29T01:21:11.957Z,49.60
2022-08-29T01:22:03.630Z,49.60
2022-08-29T01:22:55.483Z,49.70
2022-08-29T01:23:47.234Z,49.60
2022-08-29T01:24:39.022Z,49.70
2022-08-29T01:25:30.755Z,49.70
2022-08-29T01:26:22.536Z,49.70
2022-08-29T01:27:14.300Z,49.70
2022-08-29T01:28:06.094Z,49.70
2022-08-29T01:28:57.816Z,49.70
2022-08-29T01:29:49.597Z,49.80
2022-08-29T01:30:41.259Z,49.70
2022-08-29T01:31:38.647Z,49.80
2022-08-29T01:32:24.933Z,49.80
2022-08-29T01:33:16.585Z,49.80
2022-08-29T01:34:08.394Z,49.80
2022-08-29T01:35:00.198Z,49.90
2022-08-29T01:35:51.938Z,49.90
2022-08-29T01:36:43.692Z,49.90
2022-08-29T01:37:35.468Z,49.90
2022-08-29T01:38:27.224Z,49.90
2022-08-29T01:39:18.981Z,49.90
2022-08-29T01:40:10.822Z,49.90
2022-08-29T01:41:02.507Z,49.90
2022-08-29T01:41:54.267Z,49.90
2022-08-29T01:42:46.023Z,49.90
2022-08-29T01:43:37.794Z,49.80
2022-08-29T01:44:29.535Z,49.90
2022-08-29T01:45:21.359Z,49.90
2022-08-29T01:46:13.129Z,49.90
2022-08-29T01:47:04.841Z,49.90
2022-08-29T01:47:56.573Z,49.90
2022-08-29T01:48:48.349Z,49.90
2022-08-29T01:49:40.838Z,49.90
2022-08-29T01:50:31.873Z,49.90
2022-08-29T01:51:23.556Z,49.90
2022-08-29T01:52:15.394Z,49.90
2022-08-29T01:53:07.155Z,49.90
2022-08-29T01:53:58.923Z,49.90
2022-08-29T01:54:50.693Z,50.00
2022-08-29T01:55:42.454Z,50.00
2022-08-29T01:56:34.203Z,50.00
2022-08-29T01:57:25.945Z,50.00
2022-08-29T01:58:17.693Z,50.00
2022-08-29T01:59:09.473Z,50.00
2022-08-29T02:00:01.211Z,50.00
2022-08-29T02:00:53.083Z,50.00
2022-08-29T02:01:44.809Z,50.10
2022-08-29T02:02:36.572Z,50.10
2022-08-29T02:03:28.264Z,50.10
2022-08-29T02:04:20.045Z,50.10
2022-08-29T02:05:11.761Z,50.10
2022-08-29T02:06:03.460Z,50.10
2022-08-29T02:06:55.295Z,50.10
2022-08-29T02:07:47.074Z,50.20
2022-08-29T02:08:38.797Z,50.20
2022-08-29T02:09:30.585Z,50.20
2022-08-29T02:10:22.300Z,50.30
2022-08-29T02:11:14.059Z,50.30
2022-08-29T02:12:05.823Z,50.20
2022-08-29T02:12:57.596Z,50.30
2022-08-29T02:13:49.322Z,50.30
2022-08-29T02:14:41.084Z,50.40
2022-08-29T02:15:32.849Z,50.40
2022-08-29T02:16:24.647Z,50.50
2022-08-29T02:17:16.330Z,50.40
2022-08-29T02:18:08.177Z,50.50
2022-08-29T02:18:59.849Z,50.50
2022-08-29T02:19:51.618Z,50.50
2022-08-29T02:20:43.359Z,50.50
2022-08-29T02:21:35.135Z,50.50
2022-08-29T02:22:26.889Z,50.60
2022-08-29T02:23:30.536Z,50.60
2022-08-29T02:24:24.536Z,50.60
2022-08-29T02:25:02.152Z,50.60
2022-08-29T02:25:53.884Z,50.70
2022-08-29T02:26:45.665Z,50.60
2022-08-29T02:27:37.411Z,50.70
2022-08-29T02:28:29.215Z,50.70
2022-08-29T02:29:20.921Z,50.70
2022-08-29T02:30:12.693Z,50.70
2022-08-29T02:31:04.527Z,50.70
2022-08-29T02:31:56.208Z,50.70
2022-08-29T02:32:47.941Z,50.70
2022-08-29T02:33:39.699Z,50.70
2022-08-29T02:34:31.447Z,50.70
2022-08-29T02:35:24.331Z,50.70
2022-08-29T02:36:14.954Z,50.80
2022-08-29T02:37:06.736Z,50.80
2022-08-29T02:37:58.455Z,50.80
2022-08-29T02:38:50.239Z,50.80
2022-08-29T02:39:41.965Z,50.80
2022-08-29T02:40:33.733Z,50.80
2022-08-29T02:41:25.468Z,50.80
2022-08-29T02:42:17.230Z,50.80
2022-08-29T02:43:08.950Z,50.80
2022-08-29T02:44:00.734Z,50.90
2022-08-29T02:44:52.459Z,50.90
2022-08-29T02:45:44.247Z,51.00
2022-08-29T02:46:36.190Z,51.00
2022-08-29T02:47:27.767Z,51.00
2022-08-29T02:48:19.499Z,51.00
2022-08-29T02:49:11.181Z,51.00
2022-08-29T02:50:02.978Z,50.90
2022-08-29T02:50:54.798Z,50.80
2022-08-29T02:51:46.559Z,50.70
2022-08-29T02:52:38.354Z,50.60
2022-08-29T02:53:30.109Z,50.50
2022-08-29T02:54:21.910Z,50.30
2022-08-29T02:55:13.673Z,50.20
2022-08-29T02:56:05.471Z,50.00
2022-08-29T02:56:57.151Z,50.00
2022-08-29T02:57:49.038Z,49.80
2022-08-29T02:58:40.841Z,49.80
2022-08-29T02:59:32.616Z,49.70
2022-08-29T03:00:24.565Z,49.60
2022-08-29T03:01:16.246Z,49.40
2022-08-29T03:02:08.012Z,49.30
2022-08-29T03:02:59.776Z,49.30
2022-08-29T03:03:51.602Z,49.20
2022-08-29T03:04:43.285Z,49.20
2022-08-29T03:05:35.150Z,49.10
2022-08-29T03:06:26.974Z,49.00
2022-08-29T03:07:18.745Z,48.90
2022-08-29T03:08:10.569Z,48.80
2022-08-29T03:09:02.371Z,48.80
2022-08-29T03:09:54.154Z,48.80
2022-08-29T03:10:45.955Z,48.70
2022-08-29T03:11:37.764Z,48.70
2022-08-29T03:12:29.541Z,48.70
2022-08-29T03:13:21.355Z,48.60
2022-08-29T03:14:13.127Z,48.50
2022-08-29T03:15:04.979Z,48.40
2022-08-29T03:15:56.813Z,48.50
2022-08-29T03:16:48.571Z,48.30
2022-08-29T03:17:40.353Z,48.40
2022-08-29T03:18:32.178Z,48.30
2022-08-29T03:19:23.940Z,48.30
2022-08-29T03:20:15.789Z,48.30
2022-08-29T03:21:07.585Z,48.20
2022-08-29T03:21:59.390Z,48.30
2022-08-29T03:22:51.193Z,48.20
2022-08-29T03:23:43.005Z,48.20
2022-08-29T03:24:34.796Z,48.10
2022-08-29T03:25:26.613Z,48.00
2022-08-29T03:26:18.409Z,48.00
2022-08-29T03:27:10.237Z,47.90
2022-08-29T03:28:02.039Z,47.90
2022-08-29T03:28:53.771Z,47.90
2022-08-29T03:29:45.634Z,47.90
2022-08-29T03:30:37.461Z,48.00
2022-08-29T03:31:29.291Z,47.90
2022-08-29T03:32:21.085Z,47.90
2022-08-29T03:33:12.870Z,47.90
2022-08-29T03:34:04.728Z,47.90
2022-08-29T03:34:56.528Z,47.80
2022-08-29T03:35:48.304Z,47.80
2022-08-29T03:36:40.109Z,47.80
2022-08-29T03:37:31.918Z,47.70
2022-08-29T03:38:23.654Z,47.70
2022-08-29T03:39:15.530Z,47.80
2022-08-29T03:40:07.382Z,47.80
2022-08-29T03:40:59.145Z,47.80
2022-08-29T03:41:50.943Z,47.90
2022-08-29T03:42:42.770Z,47.90
2022-08-29T03:43:34.579Z,47.80
2022-08-29T03:44:26.392Z,47.70
2022-08-29T03:45:18.176Z,47.70
2022-08-29T03:46:10.031Z,47.80
2022-08-29T03:47:01.819Z,47.80
2022-08-29T03:47:53.604Z,47.80
2022-08-29T03:48:45.406Z,47.80
2022-08-29T03:49:37.221Z,47.80
2022-08-29T03:50:29.036Z,47.80
2022-08-29T03:51:20.850Z,47.80
2022-08-29T03:52:12.640Z,47.80
2022-08-29T03:53:04.473Z,47.80
2022-08-29T03:53:56.272Z,47.90
2022-08-29T03:54:48.096Z,47.80
2022-08-29T03:55:39.888Z,47.80
2022-08-29T03:56:31.717Z,47.70
2022-08-29T03:57:23.420Z,47.70
2022-08-29T03:58:15.686Z,47.70
2022-08-29T03:59:07.169Z,47.70
2022-08-29T03:59:58.964Z,47.70
2022-08-29T04:00:50.765Z,47.70
2022-08-29T04:01:42.668Z,47.70
2022-08-29T04:02:34.418Z,47.70
2022-08-29T04:03:26.565Z,47.70
2022-08-29T04:04:18.005Z,47.70
2022-08-29T04:05:09.891Z,47.60
2022-08-29T04:06:01.639Z,47.60
2022-08-29T04:06:53.378Z,47.60
2022-08-29T04:07:45.245Z,47.60
2022-08-29T04:08:37.083Z,47.60
2022-08-29T04:09:28.880Z,47.70
2022-08-29T04:10:20.704Z,47.70
2022-08-29T04:11:12.490Z,47.70
2022-08-29T04:12:04.333Z,47.60
2022-08-29T04:12:56.124Z,47.60
2022-08-29T04:13:47.936Z,47.70
2022-08-29T04:14:39.745Z,47.70
2022-08-29T04:15:31.563Z,47.70
2022-08-29T04:16:23.492Z,47.70
2022-08-29T04:17:15.185Z,47.70
2022-08-29T04:18:07.074Z,47.70
2022-08-29T04:18:58.816Z,47.70
2022-08-29T04:19:50.633Z,47.60
2022-08-29T04:20:42.464Z,47.10
2022-08-29T04:21:34.195Z,46.90
2022-08-29T04:22:26.078Z,46.70
2022-08-29T04:23:17.890Z,46.70
2022-08-29T04:24:09.734Z,46.60
2022-08-29T04:25:01.505Z,46.60
2022-08-29T04:26:02.974Z,46.70
2022-08-29T04:26:45.135Z,46.70
2022-08-29T04:27:36.966Z,46.80
2022-08-29T04:28:28.760Z,46.80
2022-08-29T04:29:20.574Z,46.80
2022-08-29T04:30:12.372Z,46.80
2022-08-29T04:31:04.166Z,46.80
2022-08-29T04:31:55.986Z,46.90
2022-08-29T04:32:47.806Z,46.90
2022-08-29T04:33:39.635Z,46.90
2022-08-29T04:34:31.403Z,46.90
2022-08-29T04:35:23.194Z,47.00
2022-08-29T04:36:15.172Z,47.00
2022-08-29T04:37:06.802Z,47.10
2022-08-29T04:37:58.610Z,47.20
2022-08-29T04:38:50.389Z,47.20
2022-08-29T04:39:42.215Z,47.20
2022-08-29T04:40:34.191Z,47.20
2022-08-29T04:41:25.794Z,47.20
2022-08-29T04:42:20.181Z,47.30
2022-08-29T04:43:09.396Z,47.20
2022-08-29T04:44:01.197Z,47.30
2022-08-29T04:44:53.002Z,47.30
2022-08-29T04:45:44.790Z,47.30
2022-08-29T04:46:36.728Z,47.20
2022-08-29T04:47:28.363Z,47.30
2022-08-29T04:48:20.179Z,47.40
2022-08-29T04:49:11.901Z,47.40
2022-08-29T04:50:03.689Z,47.40
2022-08-29T04:50:55.546Z,47.50
2022-08-29T04:51:47.350Z,47.50
2022-08-29T04:52:39.144Z,47.60
2022-08-29T04:53:30.947Z,47.60
2022-08-29T04:54:22.725Z,47.70
2022-08-29T04:55:19.470Z,47.70
2022-08-29T04:56:06.316Z,47.70
2022-08-29T04:56:58.108Z,47.70
2022-08-29T04:57:49.897Z,47.70
2022-08-29T04:58:41.632Z,47.70
2022-08-29T04:59:33.455Z,47.60
2022-08-29T05:00:25.313Z,47.60
2022-08-29T05:01:17.085Z,47.60
2022-08-29T05:02:08.873Z,47.70
2022-08-29T05:03:00.737Z,47.70
2022-08-29T05:03:52.484Z,47.70
2022-08-29T05:04:44.248Z,47.70
2022-08-29T05:05:36.040Z,47.70
2022-08-29T05:06:27.834Z,47.70
2022-08-29T05:07:19.636Z,47.90
2022-08-29T05:08:11.440Z,47.90
2022-08-29T05:09:03.215Z,47.90
2022-08-29T05:09:55.009Z,47.90
2022-08-29T05:10:46.800Z,48.00
2022-08-29T05:11:38.567Z,47.90
2022-08-29T05:12:30.376Z,47.90
2022-08-29T05:13:22.147Z,48.00
2022-08-29T05:14:13.903Z,48.00
2022-08-29T05:15:05.728Z,48.00
2022-08-29T05:15:57.629Z,48.00
2022-08-29T05:16:49.309Z,48.00
2022-08-29T05:17:41.128Z,48.10
2022-08-29T05:18:32.880Z,48.10
2022-08-29T05:19:24.713Z,48.20
2022-08-29T05:20:16.478Z,48.30
2022-08-29T05:21:08.273Z,48.30
2022-08-29T05:22:00.076Z,48.30
2022-08-29T05:22:51.849Z,48.30
2022-08-29T05:23:43.567Z,48.40
2022-08-29T05:24:35.423Z,48.40
2022-08-29T05:25:27.190Z,48.40
2022-08-29T05:26:19.021Z,48.50
2022-08-29T05:27:10.767Z,48.50
2022-08-29T05:28:02.585Z,48.50
2022-08-29T05:28:54.253Z,48.60
2022-08-29T05:29:46.158Z,48.60
2022-08-29T05:30:37.922Z,48.60
2022-08-29T05:31:29.829Z,48.70
2022-08-29T05:32:21.419Z,48.70
2022-08-29T05:33:13.296Z,48.80
2022-08-29T05:34:25.566Z,48.80
2022-08-29T05:34:56.885Z,48.80
2022-08-29T05:35:48.654Z,48.80
2022-08-29T05:36:40.451Z,48.90
2022-08-29T05:37:32.232Z,48.90
2022-08-29T05:38:23.950Z,48.90
2022-08-29T05:39:15.807Z,48.90
2022-08-29T05:40:07.665Z,48.90
2022-08-29T05:40:59.379Z,49.00
2022-08-29T05:41:51.195Z,49.00
2022-08-29T05:42:42.945Z,49.00
2022-08-29T05:43:34.740Z,49.00
2022-08-29T05:44:26.514Z,49.10
2022-08-29T05:45:18.322Z,49.10
2022-08-29T05:46:10.258Z,49.10
2022-08-29T05:47:01.908Z,49.10
2022-08-29T05:47:53.606Z,49.10
2022-08-29T05:48:45.468Z,49.10
2022-08-29T05:49:37.262Z,49.10
2022-08-29T05:50:29.056Z,49.10
2022-08-29T05:51:20.850Z,49.00
2022-08-29T05:52:12.637Z,49.10
2022-08-29T05:53:04.411Z,49.00
2022-08-29T05:53:56.215Z,49.10
2022-08-29T05:54:48.017Z,49.00
2022-08-29T05:55:39.788Z,49.00
2022-08-29T05:56:31.565Z,49.00
2022-08-29T05:57:23.369Z,49.00
2022-08-29T05:58:15.373Z,49.00
2022-08-29T05:59:06.961Z,49.10
2022-08-29T05:59:58.743Z,49.10
2022-08-29T06:00:50.535Z,49.10
2022-08-29T06:01:42.303Z,49.00
2022-08-29T06:02:34.173Z,49.10
2022-08-29T06:03:26.013Z,49.10
2022-08-29T06:04:17.717Z,49.10
2022-08-29T06:05:10.634Z,49.10
2022-08-29T06:06:01.294Z,49.20
2022-08-29T06:06:53.080Z,49.20
2022-08-29T06:07:44.884Z,49.30
2022-08-29T06:08:36.645Z,49.30
2022-08-29T06:09:28.462Z,49.30
2022-08-29T06:10:20.240Z,49.30
2022-08-29T06:11:12.046Z,49.40
2022-08-29T06:12:03.761Z,49.40
2022-08-29T06:12:55.619Z,49.40
2022-08-29T06:13:47.412Z,49.50
2022-08-29T06:14:39.220Z,49.50
2022-08-29T06:15:31.079Z,49.50
2022-08-29T06:16:22.833Z,49.50
2022-08-29T06:17:14.584Z,49.50
2022-08-29T06:18:06.399Z,49.60
2022-08-29T06:18:58.191Z,49.70
2022-08-29T06:19:49.997Z,49.70
2022-08-29T06:20:41.838Z,49.70
2022-08-29T06:21:33.577Z,49.70
2022-08-29T06:22:25.347Z,49.70
2022-08-29T06:23:17.083Z,49.70
2022-08-29T06:24:08.948Z,49.70
2022-08-29T06:25:00.745Z,49.70
2022-08-29T06:25:52.525Z,49.70
2022-08-29T06:26:44.278Z,49.70
2022-08-29T06:27:36.125Z,49.70
2022-08-29T06:28:27.947Z,49.70
2022-08-29T06:29:19.733Z,49.70
2022-08-29T06:30:11.520Z,49.60
2022-08-29T06:31:03.407Z,49.50
2022-08-29T06:31:55.135Z,49.50
2022-08-29T06:32:46.911Z,49.50
2022-08-29T06:33:38.737Z,49.50
2022-08-29T06:34:30.511Z,49.50
2022-08-29T06:35:22.355Z,49.50
2022-08-29T06:36:14.078Z,49.40
2022-08-29T06:37:05.951Z,49.50
2022-08-29T06:37:57.741Z,49.50
2022-08-29T06:38:49.546Z,49.50
2022-08-29T06:39:41.341Z,49.40
2022-08-29T06:40:33.215Z,49.30
2022-08-29T06:41:24.985Z,49.30
2022-08-29T06:42:16.784Z,49.20
2022-08-29T06:43:08.564Z,49.20
2022-08-29T06:44:00.366Z,49.20
2022-08-29T06:44:52.168Z,49.20
2022-08-29T06:45:43.905Z,49.10
2022-08-29T06:46:35.816Z,49.00
2022-08-29T06:47:27.601Z,49.00
2022-08-29T06:48:19.393Z,48.90
2022-08-29T06:49:11.201Z,48.90
2022-08-29T06:50:02.919Z,48.90
2022-08-29T06:50:54.796Z,48.90
2022-08-29T06:51:46.602Z,48.90
2022-08-29T06:52:38.418Z,49.00
2022-08-29T06:53:32.104Z,48.90
2022-08-29T06:54:22.009Z,48.80
2022-08-29T06:55:13.730Z,48.80
2022-08-29T06:56:05.611Z,48.90
2022-08-29T06:56:57.417Z,48.90
2022-08-29T06:57:49.211Z,48.90
2022-08-29T06:58:41.000Z,48.80
2022-08-29T06:59:32.815Z,48.80
2022-08-29T07:00:24.709Z,48.80
2022-08-29T07:01:16.501Z,48.80
2022-08-29T07:02:08.280Z,48.80
2022-08-29T07:03:00.107Z,48.80
2022-08-29T07:03:51.820Z,48.80
2022-08-29T07:04:43.663Z,48.70
2022-08-29T07:05:35.435Z,48.70
2022-08-29T07:06:27.259Z,48.70
2022-08-29T07:07:19.038Z,48.70
2022-08-29T07:08:10.878Z,48.70
2022-08-29T07:09:02.652Z,48.70
2022-08-29T07:09:54.420Z,48.70
2022-08-29T07:10:46.287Z,48.60
2022-08-29T07:11:41.091Z,48.60
2022-08-29T07:12:29.892Z,48.60
2022-08-29T07:13:21.729Z,48.70
2022-08-29T07:14:13.510Z,48.70
2022-08-29T07:15:05.327Z,48.70
2022-08-29T07:15:57.217Z,48.80
2022-08-29T07:16:48.958Z,48.80
2022-08-29T07:17:40.728Z,48.70
2022-08-29T07:18:32.563Z,48.70
2022-08-29T07:19:24.273Z,48.70
2022-08-29T07:20:16.177Z,48.70
2022-08-29T07:21:07.966Z,48.70
2022-08-29T07:21:59.796Z,48.70
2022-08-29T07:22:51.578Z,48.70
2022-08-29T07:23:43.423Z,48.70
2022-08-29T07:24:35.212Z,48.70
2022-08-29T07:25:27.054Z,48.70
2022-08-29T07:26:18.828Z,48.70
2022-08-29T07:27:10.678Z,48.70
2022-08-29T07:28:02.459Z,48.70
2022-08-29T07:28:54.212Z,48.70
2022-08-29T07:29:48.841Z,48.60
2022-08-29T07:30:38.035Z,48.50
2022-08-29T07:31:31.015Z,48.40
2022-08-29T07:32:25.652Z,48.40
2022-08-29T07:33:13.490Z,48.40
2022-08-29T07:34:05.134Z,48.40
2022-08-29T07:34:56.968Z,48.40
2022-08-29T07:35:48.827Z,48.40
2022-08-29T07:36:40.624Z,48.40
2022-08-29T07:37:32.446Z,48.40
2022-08-29T07:38:24.120Z,48.50
2022-08-29T07:39:16.060Z,48.30
2022-08-29T07:40:07.931Z,48.30
2022-08-29T07:40:59.680Z,48.30
2022-08-29T07:41:51.481Z,48.30
2022-08-29T07:42:43.278Z,48.40
2022-08-29T07:43:35.098Z,48.40
2022-08-29T07:44:26.903Z,48.40
2022-08-29T07:45:18.735Z,48.40
2022-08-29T07:46:10.629Z,48.20
2022-08-29T07:47:02.360Z,48.20
2022-08-29T07:47:54.119Z,48.20
2022-08-29T07:48:45.969Z,48.20
2022-08-29T07:49:41.598Z,48.10
2022-08-29T07:50:29.602Z,48.20
2022-08-29T07:51:21.428Z,48.10
2022-08-29T07:52:13.241Z,48.20
2022-08-29T07:53:05.051Z,48.10
2022-08-29T07:53:56.871Z,48.10
2022-08-29T07:54:48.683Z,48.00
2022-08-29T07:55:40.529Z,48.00
2022-08-29T07:56:37.043Z,48.10
2022-08-29T07:57:24.042Z,48.00
2022-08-29T07:58:16.232Z,48.00
2022-08-29T07:59:07.770Z,48.00
2022-08-29T07:59:59.583Z,47.90
2022-08-29T08:00:51.386Z,47.80
2022-08-29T08:01:43.279Z,47.80
2022-08-29T08:02:35.036Z,47.70
2022-08-29T08:03:26.852Z,47.70
2022-08-29T08:04:19.166Z,47.70
2022-08-29T08:05:10.476Z,47.70
2022-08-29T08:06:03.939Z,47.70
2022-08-29T08:06:54.109Z,47.70
2022-08-29T08:07:45.893Z,47.80
2022-08-29T08:08:37.758Z,47.90
2022-08-29T08:09:29.522Z,47.80
2022-08-29T08:10:21.373Z,47.80
2022-08-29T08:11:13.156Z,47.90
2022-08-29T08:12:08.158Z,47.70
2022-08-29T08:12:56.788Z,47.60
2022-08-29T08:13:48.651Z,47.70
2022-08-29T08:14:40.424Z,47.80
2022-08-29T08:15:32.264Z,47.80
2022-08-29T08:16:24.028Z,47.80
2022-08-29T08:17:15.877Z,47.70
2022-08-29T08:18:07.707Z,47.70
2022-08-29T08:18:59.521Z,47.80
2022-08-29T08:19:51.312Z,47.80
2022-08-29T08:20:43.136Z,47.50
2022-08-29T08:21:34.932Z,47.40
2022-08-29T08:22:26.793Z,47.70
2022-08-29T08:23:18.973Z,47.50
2022-08-29T08:24:10.424Z,47.40
2022-08-29T08:25:02.243Z,47.10
2022-08-29T08:25:54.007Z,47.10
2022-08-29T08:26:45.843Z,46.90
2022-08-29T08:27:41.259Z,46.90
2022-08-29T08:28:29.475Z,46.90
2022-08-29T08:29:21.314Z,47.10
2022-08-29T08:30:13.099Z,47.10
2022-08-29T08:31:06.464Z,46.70
2022-08-29T08:31:56.743Z,46.70
2022-08-29T08:32:52.745Z,46.50
2022-08-29T08:33:40.389Z,46.50
2022-08-29T08:34:35.701Z,46.60
2022-08-29T08:35:23.906Z,46.60
2022-08-29T08:36:15.817Z,46.60
2022-08-29T08:37:07.630Z,46.70
2022-08-29T08:37:59.455Z,46.90
2022-08-29T08:38:51.247Z,47.10
2022-08-29T08:39:43.081Z,47.10
2022-08-29T08:40:34.933Z,47.10
2022-08-29T08:41:27.407Z,47.20
2022-08-29T08:42:21.778Z,47.20
2022-08-29T08:43:10.345Z,47.30
2022-08-29T08:44:02.182Z,47.30
2022-08-29T08:44:53.890Z,47.20
2022-08-29T08:45:45.839Z,47.20
2022-08-29T08:46:37.634Z,47.10
2022-08-29T08:47:29.444Z,47.30
2022-08-29T08:48:21.260Z,47.20
2022-08-29T08:49:13.085Z,47.00
2022-08-29T08:50:04.905Z,47.00
2022-08-29T08:50:56.717Z,47.00
2022-08-29T08:51:48.528Z,47.00
2022-08-29T08:52:40.358Z,47.10
2022-08-29T08:53:32.191Z,47.10
2022-08-29T08:54:23.936Z,47.20
2022-08-29T08:55:15.822Z,47.10
2022-08-29T08:56:07.684Z,47.20
2022-08-29T08:57:02.137Z,47.30
2022-08-29T08:57:51.288Z,47.30
2022-08-29T08:58:43.123Z,47.50
2022-08-29T08:59:34.922Z,47.50
2022-08-29T09:00:26.755Z,47.50
2022-08-29T09:01:18.674Z,47.50
2022-08-29T09:02:10.477Z,47.40
2022-08-29T09:03:02.212Z,47.40
2022-08-29T09:03:53.977Z,47.40
2022-08-29T09:04:45.865Z,47.40
2022-08-29T09:05:37.718Z,47.50
2022-08-29T09:06:29.523Z,47.50
2022-08-29T09:07:21.386Z,47.40
2022-08-29T09:08:13.172Z,47.30
2022-08-29T09:09:05.036Z,47.30
2022-08-29T09:09:56.842Z,47.30
2022-08-29T09:10:48.702Z,47.40
2022-08-29T09:11:40.492Z,47.30
2022-08-29T09:12:32.353Z,47.30
2022-08-29T09:13:24.115Z,47.20
2022-08-29T09:14:16.021Z,47.20
2022-08-29T09:15:07.833Z,47.30
2022-08-29T09:15:59.681Z,47.30
2022-08-29T09:16:51.510Z,47.30
2022-08-29T09:17:43.344Z,47.30
2022-08-29T09:18:35.407Z,47.30
2022-08-29T09:19:27.010Z,47.30
2022-08-29T09:20:18.993Z,47.30
2022-08-29T09:21:37.090Z,47.20
2022-08-29T09:22:02.502Z,47.20
2022-08-29T09:22:54.290Z,47.30
2022-08-29T09:23:46.185Z,47.30
2022-08-29T09:24:38.013Z,47.30
2022-08-29T09:25:29.831Z,47.30
2022-08-29T09:26:21.732Z,47.30
2022-08-29T09:27:13.513Z,47.30
2022-08-29T09:28:05.375Z,47.30
2022-08-29T09:28:57.187Z,47.30
2022-08-29T09:29:49.044Z,47.20
2022-08-29T09:30:40.910Z,47.20
2022-08-29T09:31:32.788Z,47.20
2022-08-29T09:32:24.624Z,47.20
2022-08-29T09:33:16.592Z,47.30
2022-08-29T09:34:08.220Z,47.20
2022-08-29T09:35:09.492Z,47.30
2022-08-29T09:35:51.938Z,47.40
2022-08-29T09:36:47.816Z,47.30
2022-08-29T09:37:35.590Z,47.40
2022-08-29T09:38:27.432Z,47.40
2022-08-29T09:39:19.260Z,47.40
2022-08-29T09:40:11.344Z,47.30
2022-08-29T09:41:02.927Z,47.40
2022-08-29T09:41:54.715Z,47.40
2022-08-29T09:42:46.629Z,47.30
2022-08-29T09:43:38.467Z,47.30
2022-08-29T09:44:30.304Z,47.30
2022-08-29T09:45:22.151Z,47.30
2022-08-29T09:46:14.093Z,47.30
2022-08-29T09:47:05.852Z,47.40
2022-08-29T09:47:57.686Z,47.40
2022-08-29T09:48:49.521Z,47.40
2022-08-29T09:49:41.374Z,47.40
2022-08-29T09:50:33.233Z,47.40
2022-08-29T09:51:25.053Z,47.50
2022-08-29T09:52:16.889Z,47.50
2022-08-29T09:53:11.693Z,47.50
2022-08-29T09:54:00.594Z,47.40
2022-08-29T09:54:52.427Z,47.40
2022-08-29T09:55:45.237Z,47.40
2022-08-29T09:56:36.109Z,47.40
2022-08-29T09:57:27.963Z,47.40
2022-08-29T09:58:19.958Z,47.40
2022-08-29T09:59:11.656Z,47.50
2022-08-29T10:00:03.426Z,47.50
2022-08-29T10:00:55.412Z,47.50
2022-08-29T10:01:47.307Z,47.50
2022-08-29T10:02:39.109Z,47.50
2022-08-29T10:03:30.863Z,47.50
2022-08-29T10:04:22.749Z,47.60
2022-08-29T10:05:14.471Z,47.60
2022-08-29T10:06:06.435Z,47.60
2022-08-29T10:06:58.263Z,47.60
2022-08-29T10:07:50.129Z,47.60
2022-08-29T10:08:41.939Z,47.70
2022-08-29T10:09:33.827Z,47.70
2022-08-29T10:10:25.629Z,47.60
2022-08-29T10:11:17.440Z,47.60
2022-08-29T10:12:09.333Z,47.70
2022-08-29T10:13:01.196Z,47.70
2022-08-29T10:13:53.014Z,47.70
2022-08-29T10:14:50.012Z,47.70
2022-08-29T10:15:49.340Z,47.80
2022-08-29T10:16:28.683Z,47.70
2022-08-29T10:17:20.409Z,47.70
2022-08-29T10:18:12.260Z,47.60
2022-08-29T10:19:04.004Z,47.60
2022-08-29T10:19:55.949Z,47.60
2022-08-29T10:20:47.825Z,47.60
2022-08-29T10:21:39.663Z,47.70
2022-08-29T10:22:31.486Z,47.70
2022-08-29T10:23:23.346Z,47.60
2022-08-29T10:24:17.325Z,47.60
2022-08-29T10:25:07.041Z,47.70
2022-08-29T10:25:58.862Z,47.60
2022-08-29T10:26:50.719Z,47.60
2022-08-29T10:27:42.556Z,47.60
2022-08-29T10:28:34.334Z,47.60
2022-08-29T10:29:29.638Z,47.60
2022-08-29T10:30:18.122Z,47.70
2022-08-29T10:31:09.947Z,47.70
2022-08-29T10:32:01.896Z,47.60
2022-08-29T10:32:53.645Z,47.60
2022-08-29T10:33:45.518Z,47.70
2022-08-29T10:34:37.341Z,47.70
2022-08-29T10:35:29.212Z,47.70
2022-08-29T10:36:21.036Z,47.70
2022-08-29T10:37:12.887Z,47.70
2022-08-29T10:38:04.657Z,47.70
2022-08-29T10:38:56.583Z,47.70
2022-08-29T10:39:48.414Z,47.70
2022-08-29T10:40:43.171Z,47.70
2022-08-29T10:41:32.108Z,47.70
2022-08-29T10:42:23.988Z,47.80
2022-08-29T10:43:16.049Z,48.00
2022-08-29T10:44:07.748Z,47.90
2022-08-29T10:44:59.515Z,47.80
2022-08-29T10:45:51.479Z,47.80
2022-08-29T10:46:43.213Z,47.80
2022-08-29T10:47:35.065Z,47.70
2022-08-29T10:48:26.920Z,47.80
2022-08-29T10:49:18.776Z,47.80
2022-08-29T10:50:17.185Z,47.70
2022-08-29T10:51:02.465Z,47.80
2022-08-29T10:51:54.241Z,47.80
2022-08-29T10:52:46.155Z,47.80
2022-08-29T10:53:38.015Z,47.80
2022-08-29T10:54:29.868Z,47.80
2022-08-29T10:55:21.715Z,47.80
2022-08-29T10:56:13.569Z,47.80
2022-08-29T10:57:05.412Z,47.80
2022-08-29T10:57:57.257Z,47.80
2022-08-29T10:58:49.116Z,47.70
2022-08-29T10:59:40.974Z,47.70
2022-08-29T11:00:32.797Z,47.70
2022-08-29T11:01:24.714Z,47.70
2022-08-29T11:02:16.546Z,47.70
2022-08-29T11:03:08.377Z,47.70
2022-08-29T11:04:00.275Z,47.70
2022-08-29T11:04:52.082Z,47.70
2022-08-29T11:05:43.934Z,47.70
2022-08-29T11:07:27.619Z,47.70